createdAt,value
2023-05-12T00:00:19.313Z,4.47
2023-05-12T00:02:46.528Z,4.17
2023-05-12T00:05:13.617Z,4.27
2023-05-12T00:07:40.674Z,4.75
2023-05-12T00:10:08.134Z,4.13
2023-05-12T00:12:35.199Z,3.90
2023-05-12T00:15:02.246Z,4.00
2023-05-12T00:17:29.261Z,3.90
2023-05-12T00:19:56.309Z,4.30
2023-05-12T00:22:23.293Z,3.87
2023-05-12T00:24:50.278Z,3.90
2023-05-12T00:27:17.259Z,3.93
2023-05-12T00:29:44.678Z,4.13
2023-05-12T00:32:11.719Z,3.90
2023-05-12T00:34:38.711Z,3.60
2023-05-12T00:37:06.468Z,4.10
2023-05-12T00:39:33.454Z,3.42
2023-05-12T00:42:00.542Z,3.90
2023-05-12T00:44:27.538Z,4.00
2023-05-12T00:46:55.356Z,3.78
2023-05-12T00:49:22.533Z,3.53
2023-05-12T00:51:50.062Z,4.00
2023-05-12T00:54:17.515Z,3.28
2023-05-12T00:56:44.597Z,3.43
2023-05-12T00:59:11.727Z,3.35
2023-05-12T01:01:38.867Z,3.60
2023-05-12T01:04:06.438Z,3.37
2023-05-12T01:06:54.315Z,3.15
2023-05-12T01:09:21.524Z,4.00
2023-05-12T01:11:48.553Z,3.35
2023-05-12T01:14:15.797Z,3.80
2023-05-12T01:16:53.640Z,3.63
2023-05-12T01:19:54.019Z,3.23
2023-05-12T01:22:21.351Z,3.77
2023-05-12T01:24:54.690Z,3.33
2023-05-12T01:27:25.909Z,3.28
2023-05-12T01:29:54.808Z,3.08
2023-05-12T01:32:22.325Z,3.13
2023-05-12T01:34:50.381Z,3.53
2023-05-12T01:37:17.496Z,3.70
2023-05-12T01:39:44.825Z,3.73
2023-05-12T01:42:12.061Z,3.60
2023-05-12T01:44:39.067Z,3.38
2023-05-12T01:47:09.878Z,3.83
2023-05-12T01:49:37.804Z,3.17
2023-05-12T01:52:05.453Z,3.80
2023-05-12T01:54:32.486Z,3.97
2023-05-12T01:56:59.473Z,2.93
2023-05-12T01:59:27.440Z,3.50
2023-05-12T02:01:54.769Z,3.30
2023-05-12T02:04:21.800Z,3.07
2023-05-12T02:06:48.965Z,3.50
2023-05-12T02:09:16.059Z,3.67
2023-05-12T02:11:43.064Z,3.00
2023-05-12T02:14:10.124Z,3.53
2023-05-12T02:16:37.183Z,3.80
2023-05-12T02:19:04.380Z,3.30
2023-05-12T02:21:31.486Z,3.67
2023-05-12T02:23:58.551Z,3.57
2023-05-12T02:26:25.625Z,3.37
2023-05-12T02:28:52.628Z,3.40
2023-05-12T02:31:19.677Z,3.27
2023-05-12T02:33:46.715Z,3.50
2023-05-12T02:36:13.814Z,3.30
2023-05-12T02:38:41.285Z,4.50
2023-05-12T02:41:08.379Z,3.47
2023-05-12T02:43:35.498Z,3.30
2023-05-12T02:46:02.780Z,3.57
2023-05-12T02:48:29.820Z,3.77
2023-05-12T02:50:57.380Z,2.83
2023-05-12T02:53:24.513Z,3.83
2023-05-12T02:55:51.651Z,3.70
2023-05-12T02:58:18.709Z,3.43
2023-05-12T03:00:46.127Z,3.57
2023-05-12T03:03:14.532Z,3.20
2023-05-12T03:05:41.660Z,3.63
2023-05-12T03:08:08.665Z,3.90
2023-05-12T03:10:36.036Z,3.30
2023-05-12T03:13:03.186Z,4.17
2023-05-12T03:15:30.238Z,3.70
2023-05-12T03:17:57.241Z,4.03
2023-05-12T03:20:24.383Z,3.53
2023-05-12T03:22:51.453Z,4.10
2023-05-12T03:25:18.473Z,3.70
2023-05-12T03:27:45.614Z,3.30
2023-05-12T03:30:13.387Z,2.93
2023-05-12T03:32:40.616Z,3.47
2023-05-12T03:35:08.284Z,4.18
2023-05-12T03:37:35.361Z,3.70
2023-05-12T03:40:02.367Z,3.53
2023-05-12T03:42:29.324Z,3.97
2023-05-12T03:44:56.316Z,3.60
2023-05-12T03:47:23.504Z,3.55
2023-05-12T03:49:50.672Z,3.80
2023-05-12T03:52:17.769Z,3.78
2023-05-12T03:54:44.785Z,3.83
2023-05-12T03:57:12.998Z,3.75
2023-05-12T03:59:40.052Z,3.55
2023-05-12T04:02:11.736Z,3.60
2023-05-12T04:04:38.815Z,3.75
2023-05-12T04:07:05.959Z,3.80
2023-05-12T04:09:33.319Z,3.17
2023-05-12T04:12:00.318Z,3.70
2023-05-12T04:14:39.100Z,3.50
2023-05-12T04:17:09.617Z,3.65
2023-05-12T04:19:36.711Z,3.42
2023-05-12T04:22:03.786Z,3.17
2023-05-12T04:24:31.345Z,3.60
2023-05-12T04:26:58.497Z,3.58
2023-05-12T04:29:25.507Z,3.58
2023-05-12T04:31:54.834Z,3.85
2023-05-12T04:34:21.885Z,2.97
2023-05-12T04:36:48.934Z,3.45
2023-05-12T04:39:16.056Z,3.88
2023-05-12T04:41:43.064Z,3.60
2023-05-12T04:44:10.077Z,3.40
2023-05-12T04:46:37.107Z,3.65
2023-05-12T04:49:04.636Z,3.05
2023-05-12T04:51:32.252Z,3.40
2023-05-12T04:53:59.218Z,3.10
2023-05-12T04:56:26.207Z,3.42
2023-05-12T04:58:53.222Z,3.47
2023-05-12T05:01:20.401Z,3.22
2023-05-12T05:03:47.565Z,3.90
2023-05-12T05:06:14.726Z,3.28
2023-05-12T05:08:41.825Z,3.17
2023-05-12T05:11:08.871Z,3.15
2023-05-12T05:13:35.898Z,3.55
2023-05-12T05:16:03.057Z,2.47
2023-05-12T05:18:30.281Z,3.10
2023-05-12T05:20:58.829Z,3.47
2023-05-12T05:23:26.799Z,2.75
2023-05-12T05:25:53.929Z,3.13
2023-05-12T05:28:20.944Z,3.92
2023-05-12T05:30:48.025Z,3.67
2023-05-12T05:33:15.076Z,4.00
2023-05-12T05:35:42.571Z,3.22
2023-05-12T05:38:09.652Z,3.85
2023-05-12T05:40:49.321Z,3.40
2023-05-12T05:43:19.765Z,3.13
2023-05-12T05:45:47.259Z,2.60
2023-05-12T05:48:14.213Z,2.97
2023-05-12T05:50:41.453Z,3.38
2023-05-12T05:53:08.437Z,2.80
2023-05-12T05:55:35.521Z,3.33
2023-05-12T05:58:02.514Z,2.80
2023-05-12T06:00:29.513Z,2.88
2023-05-12T06:02:56.705Z,3.38
2023-05-12T06:05:23.841Z,3.28
2023-05-12T06:07:50.803Z,3.40
2023-05-12T06:10:18.027Z,3.03
2023-05-12T06:12:45.192Z,3.47
2023-05-12T06:15:12.705Z,2.47
2023-05-12T06:17:39.856Z,3.30
2023-05-12T06:20:08.193Z,3.28
2023-05-12T06:22:35.314Z,3.17
2023-05-12T06:25:02.689Z,2.78
2023-05-12T06:27:30.014Z,3.05
2023-05-12T06:29:56.986Z,3.05
2023-05-12T06:32:23.977Z,3.13
2023-05-12T06:34:51.062Z,2.53
2023-05-12T06:37:18.218Z,2.55
2023-05-12T06:39:45.227Z,2.42
2023-05-12T06:42:12.268Z,2.70
2023-05-12T06:44:41.203Z,3.25
2023-05-12T06:47:09.283Z,2.83
2023-05-12T06:49:38.046Z,2.65
2023-05-12T06:52:07.974Z,2.33
2023-05-12T06:54:35.017Z,2.50
2023-05-12T06:57:01.986Z,2.45
2023-05-12T06:59:29.048Z,2.70
2023-05-12T07:01:56.098Z,2.55
2023-05-12T07:04:23.448Z,2.22
2023-05-12T07:06:52.216Z,2.63
2023-05-12T07:09:19.227Z,2.40
2023-05-12T07:11:46.890Z,2.88
2023-05-12T07:14:13.841Z,2.35
2023-05-12T07:16:40.877Z,2.72
2023-05-12T07:19:09.094Z,2.85
2023-05-12T07:21:37.227Z,2.42
2023-05-12T07:24:06.124Z,3.13
2023-05-12T07:26:33.498Z,2.83
2023-05-12T07:29:01.088Z,2.47
2023-05-12T07:31:28.730Z,2.50
2023-05-12T07:33:56.287Z,2.65
2023-05-12T07:36:23.468Z,2.45
2023-05-12T07:38:50.462Z,2.50
2023-05-12T07:41:18.110Z,2.30
2023-05-12T07:43:45.843Z,2.97
2023-05-12T07:46:12.919Z,2.20
2023-05-12T07:48:40.658Z,2.40
2023-05-12T07:51:08.934Z,2.08
2023-05-12T07:53:36.100Z,2.22
2023-05-12T07:56:03.293Z,2.70
2023-05-12T07:58:30.334Z,2.50
2023-05-12T08:01:00.190Z,2.92
2023-05-12T08:03:27.597Z,2.90
2023-05-12T08:05:54.709Z,2.70
2023-05-12T08:08:21.795Z,2.10
2023-05-12T08:10:48.775Z,2.40
2023-05-12T08:13:15.823Z,2.22
2023-05-12T08:15:42.960Z,1.75
2023-05-12T08:18:10.105Z,2.50
2023-05-12T08:20:37.247Z,2.15
2023-05-12T08:23:04.266Z,2.50
2023-05-12T08:25:31.421Z,2.55
2023-05-12T08:27:59.842Z,2.50
2023-05-12T08:30:27.557Z,2.30
2023-05-12T08:32:56.658Z,3.03
2023-05-12T08:35:26.557Z,2.33
2023-05-12T08:37:53.654Z,2.50
2023-05-12T08:40:25.066Z,2.78
2023-05-12T08:43:12.345Z,2.65
2023-05-12T08:45:41.361Z,2.53
2023-05-12T08:48:11.402Z,2.70
2023-05-12T08:50:41.227Z,2.50
2023-05-12T08:53:12.301Z,2.97
2023-05-12T08:55:46.065Z,2.45
2023-05-12T08:58:21.498Z,2.70
2023-05-12T09:00:54.856Z,3.33
2023-05-12T09:03:23.409Z,2.10
2023-05-12T09:05:50.599Z,2.42
2023-05-12T09:08:18.194Z,2.65
2023-05-12T09:10:45.998Z,2.30
2023-05-12T09:13:37.571Z,2.28
2023-05-12T09:16:07.821Z,2.30
2023-05-12T09:18:58.715Z,2.90
2023-05-12T09:21:27.011Z,2.50
2023-05-12T09:23:57.330Z,2.33
2023-05-12T09:26:26.450Z,2.20
2023-05-12T09:29:06.651Z,2.42
2023-05-12T09:31:34.078Z,2.10
2023-05-12T09:34:02.393Z,2.30
2023-05-12T09:36:29.443Z,2.50
2023-05-12T09:39:07.354Z,2.40
2023-05-12T09:41:38.645Z,2.35
2023-05-12T09:44:06.813Z,2.33
2023-05-12T09:46:34.264Z,2.28
2023-05-12T09:49:03.729Z,2.30
2023-05-12T09:51:31.231Z,2.33
2023-05-12T09:53:59.104Z,2.03
2023-05-12T09:56:29.719Z,3.20
2023-05-12T09:58:57.834Z,2.40
2023-05-12T10:01:26.816Z,2.25
2023-05-12T10:03:59.158Z,2.08
2023-05-12T10:06:42.864Z,3.17
2023-05-12T10:09:25.887Z,2.78
2023-05-12T10:11:54.172Z,2.42
2023-05-12T10:14:23.529Z,2.75
2023-05-12T10:16:52.050Z,2.35
2023-05-12T10:19:20.222Z,2.03
2023-05-12T10:21:47.783Z,2.35
2023-05-12T10:24:18.185Z,2.40
2023-05-12T10:26:45.529Z,2.40
2023-05-12T10:29:14.050Z,2.53
2023-05-12T10:31:42.533Z,2.65
2023-05-12T10:34:21.599Z,2.28
2023-05-12T10:36:51.340Z,2.42
2023-05-12T10:39:19.513Z,2.20
2023-05-12T10:41:46.585Z,2.38
2023-05-12T10:44:13.709Z,2.38
2023-05-12T10:46:42.003Z,2.20
2023-05-12T10:49:12.914Z,2.80
2023-05-12T10:51:51.133Z,2.13
2023-05-12T10:54:25.388Z,2.50
2023-05-12T10:56:57.521Z,1.90
2023-05-12T10:59:27.196Z,2.28
2023-05-12T11:02:20.302Z,1.90
2023-05-12T11:04:55.855Z,2.58
2023-05-12T11:07:30.605Z,2.95
2023-05-12T11:10:01.654Z,2.45
2023-05-12T11:12:33.174Z,2.50
2023-05-12T11:15:03.402Z,2.50
2023-05-12T11:17:30.732Z,2.28
2023-05-12T11:19:58.234Z,2.45
2023-05-12T11:22:25.420Z,2.33
2023-05-12T11:24:53.207Z,2.20
2023-05-12T11:27:23.101Z,2.58
2023-05-12T11:30:02.847Z,2.70
2023-05-12T11:32:30.417Z,2.45
2023-05-12T11:35:11.930Z,3.05
2023-05-12T11:37:41.052Z,2.15
2023-05-12T11:40:20.982Z,2.42
2023-05-12T11:42:55.893Z,2.08
2023-05-12T11:45:30.623Z,2.08
2023-05-12T11:48:14.848Z,2.28
2023-05-12T11:50:46.869Z,2.42
2023-05-12T11:53:17.550Z,2.47
2023-05-12T11:55:56.391Z,2.20
2023-05-12T11:58:30.697Z,2.78
2023-05-12T12:01:10.030Z,9.82
2023-05-12T12:03:50.039Z,4.25
2023-05-12T12:06:19.525Z,5.47
2023-05-12T12:09:02.710Z,2.65
2023-05-12T12:11:30.845Z,2.95
2023-05-12T12:13:58.217Z,3.45
2023-05-12T12:16:27.359Z,4.05
2023-05-12T12:18:54.929Z,2.70
2023-05-12T12:21:26.916Z,2.50
2023-05-12T12:23:53.888Z,2.13
2023-05-12T12:26:21.657Z,2.17
2023-05-12T12:28:49.249Z,2.20
2023-05-12T12:31:16.750Z,2.30
2023-05-12T12:33:43.956Z,2.60
2023-05-12T12:36:10.999Z,2.45
2023-05-12T12:38:38.101Z,2.17
2023-05-12T12:41:06.428Z,1.80
2023-05-12T12:43:33.686Z,2.28
2023-05-12T12:46:00.916Z,2.33
2023-05-12T12:48:28.911Z,2.47
2023-05-12T12:50:56.409Z,2.35
2023-05-12T12:53:23.714Z,3.05
2023-05-12T12:55:51.219Z,2.10
2023-05-12T12:58:18.203Z,2.33
2023-05-12T13:00:45.544Z,2.70
2023-05-12T13:03:12.731Z,2.95
2023-05-12T13:05:39.763Z,2.67
2023-05-12T13:08:07.317Z,2.45
2023-05-12T13:10:34.924Z,2.40
2023-05-12T13:13:02.117Z,2.47
2023-05-12T13:15:29.571Z,2.65
2023-05-12T13:17:56.707Z,2.40
2023-05-12T13:20:23.845Z,2.78
2023-05-12T13:22:50.817Z,2.58
2023-05-12T13:25:18.264Z,2.35
2023-05-12T13:27:45.275Z,2.40
2023-05-12T13:30:13.940Z,2.35
2023-05-12T13:32:41.618Z,2.20
2023-05-12T13:35:09.379Z,3.35
2023-05-12T13:37:37.540Z,2.58
2023-05-12T13:40:05.060Z,2.17
2023-05-12T13:42:32.524Z,2.55
2023-05-12T13:44:59.564Z,2.08
2023-05-12T13:47:27.021Z,2.17
2023-05-12T13:49:54.194Z,2.30
2023-05-12T13:52:21.172Z,2.63
2023-05-12T13:54:48.257Z,2.83
2023-05-12T13:57:15.241Z,2.47
2023-05-12T13:59:42.208Z,2.60
2023-05-12T14:02:11.947Z,2.80
2023-05-12T14:04:38.948Z,2.42
2023-05-12T14:07:08.314Z,2.45
2023-05-12T14:09:35.667Z,2.13
2023-05-12T14:12:04.437Z,3.20
2023-05-12T14:14:31.616Z,2.42
2023-05-12T14:16:58.646Z,2.50
2023-05-12T14:19:25.745Z,3.15
2023-05-12T14:21:52.811Z,2.40
2023-05-12T14:24:20.003Z,1.98
2023-05-12T14:26:46.973Z,2.20
2023-05-12T14:29:14.000Z,2.60
2023-05-12T14:31:41.126Z,2.35
2023-05-12T14:34:09.271Z,2.22
2023-05-12T14:36:36.434Z,2.55
2023-05-12T14:39:03.802Z,2.03
2023-05-12T14:41:30.979Z,2.47
2023-05-12T14:43:58.660Z,2.00
2023-05-12T14:46:25.903Z,2.35
2023-05-12T14:48:53.078Z,2.22
2023-05-12T14:51:20.086Z,1.92
2023-05-12T14:53:47.132Z,2.17
2023-05-12T14:56:14.203Z,1.95
2023-05-12T14:58:41.190Z,2.30
2023-05-12T15:01:09.467Z,2.17
2023-05-12T15:03:36.919Z,1.83
2023-05-12T15:06:07.634Z,2.35
2023-05-12T15:08:35.332Z,2.20
2023-05-12T15:11:02.320Z,2.33
2023-05-12T15:13:29.415Z,1.90
2023-05-12T15:15:57.091Z,2.17
2023-05-12T15:18:24.516Z,2.75
2023-05-12T15:20:52.037Z,2.03
2023-05-12T15:23:19.060Z,2.20
2023-05-12T15:25:46.106Z,2.13
2023-05-12T15:28:13.141Z,2.40
2023-05-12T15:30:40.237Z,2.38
2023-05-12T15:33:07.380Z,2.20
2023-05-12T15:35:34.626Z,2.55
2023-05-12T15:38:01.640Z,2.65
2023-05-12T15:40:30.843Z,2.10
2023-05-12T15:42:58.056Z,2.40
2023-05-12T15:45:25.129Z,2.28
2023-05-12T15:47:52.213Z,2.45
2023-05-12T15:50:22.691Z,2.25
2023-05-12T15:52:50.201Z,2.20
2023-05-12T15:55:17.573Z,2.20
2023-05-12T15:57:44.786Z,3.08
2023-05-12T16:00:12.842Z,2.30
2023-05-12T16:02:40.290Z,2.70
2023-05-12T16:05:07.927Z,2.33
2023-05-12T16:07:35.284Z,2.22
2023-05-12T16:10:03.432Z,2.20
2023-05-12T16:12:30.766Z,1.90
2023-05-12T16:14:57.820Z,2.72
2023-05-12T16:17:24.982Z,2.30
2023-05-12T16:19:53.652Z,2.15
2023-05-12T16:22:20.704Z,2.13
2023-05-12T16:24:48.003Z,2.30
2023-05-12T16:27:15.320Z,2.13
2023-05-12T16:29:45.980Z,2.50
2023-05-12T16:32:13.119Z,2.33
2023-05-12T16:34:40.445Z,2.08
2023-05-12T16:37:07.630Z,2.10
2023-05-12T16:39:35.976Z,2.33
2023-05-12T16:42:03.557Z,2.30
2023-05-12T16:44:30.618Z,2.38
2023-05-12T16:46:57.664Z,2.13
2023-05-12T16:49:24.677Z,2.35
2023-05-12T16:51:51.680Z,2.17
2023-05-12T16:54:18.771Z,2.17
2023-05-12T16:56:45.976Z,2.25
2023-05-12T16:59:13.011Z,2.40
2023-05-12T17:01:40.115Z,2.40
2023-05-12T17:04:08.018Z,2.65
2023-05-12T17:06:35.101Z,2.63
2023-05-12T17:09:02.130Z,2.70
2023-05-12T17:11:29.234Z,2.55
2023-05-12T17:13:56.240Z,2.83
2023-05-12T17:16:23.283Z,2.40
2023-05-12T17:21:20.333Z,2.45
2023-05-12T17:23:47.672Z,2.60
2023-05-12T17:26:14.801Z,2.42
2023-05-12T17:28:42.381Z,2.15
2023-05-12T17:31:09.419Z,2.63
2023-05-12T17:33:37.011Z,2.10
2023-05-12T17:36:12.259Z,2.50
2023-05-12T17:38:41.273Z,2.40
2023-05-12T17:41:08.449Z,2.15
2023-05-12T17:43:35.558Z,2.50
2023-05-12T17:46:04.119Z,2.30
2023-05-12T17:48:33.370Z,2.10
2023-05-12T17:51:02.261Z,2.20
2023-05-12T17:53:31.205Z,2.22
2023-05-12T17:55:59.260Z,2.47
2023-05-12T17:58:26.523Z,2.58
2023-05-12T18:00:53.751Z,2.75
2023-05-12T18:03:24.028Z,2.55
2023-05-12T18:05:53.307Z,2.90
2023-05-12T18:08:20.681Z,2.72
2023-05-12T18:10:47.987Z,2.30
2023-05-12T18:13:15.582Z,2.40
2023-05-12T18:15:43.157Z,2.50
2023-05-12T18:18:10.807Z,2.85
2023-05-12T18:20:38.218Z,2.65
2023-05-12T18:23:05.342Z,2.80
2023-05-12T18:25:32.363Z,3.20
2023-05-12T18:27:59.368Z,3.58
2023-05-12T18:30:26.396Z,3.10
2023-05-12T18:32:53.699Z,2.72
2023-05-12T18:35:20.968Z,2.88
2023-05-12T18:37:48.188Z,3.00
2023-05-12T18:40:15.263Z,3.17
2023-05-12T18:42:42.681Z,3.08
2023-05-12T18:45:10.290Z,3.00
2023-05-12T18:47:37.529Z,3.30
2023-05-12T18:50:05.406Z,3.10
2023-05-12T18:52:32.459Z,3.30
2023-05-12T18:54:59.725Z,4.35
2023-05-12T18:57:26.836Z,2.90
2023-05-12T18:59:53.908Z,3.35
2023-05-12T19:02:20.905Z,3.35
2023-05-12T19:04:48.466Z,3.03
2023-05-12T19:07:15.843Z,3.13
2023-05-12T19:09:44.090Z,3.60
2023-05-12T19:12:11.849Z,3.15
2023-05-12T19:14:40.144Z,3.70
2023-05-12T19:17:07.770Z,3.35
2023-05-12T19:19:35.310Z,3.13
2023-05-12T19:22:04.151Z,2.97
2023-05-12T19:24:31.224Z,3.05
2023-05-12T19:26:58.219Z,3.30
2023-05-12T19:29:25.370Z,2.92
2023-05-12T19:31:53.240Z,3.75
2023-05-12T19:34:20.686Z,5.10
2023-05-12T19:36:47.963Z,3.63
2023-05-12T19:39:15.070Z,4.15
2023-05-12T19:41:42.106Z,3.92
2023-05-12T19:44:09.192Z,4.85
2023-05-12T19:46:36.672Z,4.43
2023-05-12T19:49:05.889Z,4.50
2023-05-12T19:51:33.199Z,5.28
2023-05-12T19:54:01.961Z,4.53
2023-05-12T19:56:30.346Z,5.35
2023-05-12T19:58:57.328Z,5.43
2023-05-12T20:01:24.708Z,5.70
2023-05-12T20:03:54.149Z,5.72
2023-05-12T20:06:22.474Z,5.05
2023-05-12T20:08:49.573Z,5.63
2023-05-12T20:11:16.582Z,5.47
2023-05-12T20:13:43.609Z,5.03
2023-05-12T20:16:10.736Z,5.28
2023-05-12T20:18:37.812Z,4.57
2023-05-12T20:21:04.940Z,5.18
2023-05-12T20:23:33.092Z,5.20
2023-05-12T20:26:00.275Z,6.30
2023-05-12T20:28:28.298Z,5.32
2023-05-12T20:30:55.360Z,5.80
2023-05-12T20:33:22.516Z,5.55
2023-05-12T20:35:49.540Z,5.65
2023-05-12T20:38:16.774Z,4.75
2023-05-12T20:40:43.780Z,5.50
2023-05-12T20:43:10.837Z,5.20
2023-05-12T20:45:37.938Z,5.68
2023-05-12T20:48:05.255Z,5.50
2023-05-12T20:50:32.274Z,5.30
2023-05-12T20:52:59.560Z,6.38
2023-05-12T20:55:26.557Z,6.10
2023-05-12T20:57:53.899Z,5.10
2023-05-12T21:00:21.658Z,6.10
2023-05-12T21:02:52.132Z,5.30
2023-05-12T21:05:19.661Z,5.20
2023-05-12T21:07:46.854Z,5.53
2023-05-12T21:10:13.806Z,6.68
2023-05-12T21:12:40.947Z,5.68
2023-05-12T21:15:10.522Z,5.53
2023-05-12T21:17:39.387Z,6.65
2023-05-12T21:20:10.157Z,5.88
2023-05-12T21:22:38.261Z,6.03
2023-05-12T21:25:06.190Z,5.78
2023-05-12T21:27:33.232Z,6.03
2023-05-12T21:30:00.296Z,7.40
2023-05-12T21:32:27.920Z,6.22
2023-05-12T21:34:55.466Z,6.28
2023-05-12T21:37:22.488Z,5.68
2023-05-12T21:39:49.446Z,5.43
2023-05-12T21:42:16.386Z,5.20
2023-05-12T21:44:43.436Z,5.80
2023-05-12T21:47:10.547Z,5.90
2023-05-12T21:49:37.517Z,6.15
2023-05-12T21:52:04.788Z,5.55
2023-05-12T21:54:34.871Z,6.38
2023-05-12T21:57:02.869Z,8.05
2023-05-12T21:59:30.645Z,6.50
2023-05-12T22:01:57.885Z,8.15
2023-05-12T22:04:24.962Z,8.63
2023-05-12T22:06:52.035Z,8.68
2023-05-12T22:09:20.377Z,8.27
2023-05-12T22:11:47.583Z,9.40
2023-05-12T22:14:14.676Z,10.65
2023-05-12T22:16:42.740Z,10.05
2023-05-12T22:19:10.373Z,11.23
2023-05-12T22:21:37.524Z,10.52
2023-05-12T22:24:05.076Z,11.35
2023-05-12T22:26:32.853Z,10.23
2023-05-12T22:28:59.844Z,10.25
2023-05-12T22:31:27.025Z,11.07
2023-05-12T22:33:54.065Z,11.73
2023-05-12T22:36:21.535Z,11.13
2023-05-12T22:38:48.686Z,11.07
2023-05-12T22:41:15.848Z,11.77
2023-05-12T22:43:42.872Z,11.73
2023-05-12T22:46:09.962Z,11.60
2023-05-12T22:48:39.500Z,11.75
2023-05-12T22:51:07.100Z,12.15
2023-05-12T22:53:36.605Z,14.35
2023-05-12T22:56:04.728Z,11.80
2023-05-12T22:58:31.728Z,11.82
2023-05-12T23:01:00.374Z,11.35
2023-05-12T23:03:27.525Z,11.77
2023-05-12T23:05:54.518Z,11.00
2023-05-12T23:08:21.644Z,11.63
2023-05-12T23:10:48.667Z,12.60
2023-05-12T23:13:15.795Z,12.65
2023-05-12T23:15:42.812Z,12.82
2023-05-12T23:18:09.863Z,11.13
2023-05-12T23:20:36.889Z,22.20
2023-05-12T23:23:03.908Z,20.08
2023-05-12T23:25:31.779Z,12.50
2023-05-12T23:27:58.808Z,12.00
2023-05-12T23:30:25.932Z,11.70
2023-05-12T23:32:53.071Z,11.20
2023-05-12T23:35:20.253Z,10.98
2023-05-12T23:37:47.572Z,11.57
2023-05-12T23:40:14.525Z,13.13
2023-05-12T23:42:41.661Z,11.60
2023-05-12T23:45:09.345Z,11.75
2023-05-12T23:47:36.435Z,13.30
2023-05-12T23:50:03.800Z,12.40
2023-05-12T23:52:30.934Z,12.05
2023-05-12T23:54:58.014Z,11.60
2023-05-12T23:57:25.034Z,12.35
2023-05-12T23:59:52.064Z,13.07
